sensor_id;sensor_type;location;lat;lon;timestamp;temperature;humidity
12166;DHT22;6146;48.128;11.476;2023-09-19T00:01:33;17.20;99.90
12166;DHT22;6146;48.128;11.476;2023-09-19T00:03:59;17.30;99.90
12166;DHT22;6146;48.128;11.476;2023-09-19T00:06:25;17.30;99.90
12166;DHT22;6146;48.128;11.476;2023-09-19T00:08:53;17.40;99.90
12166;DHT22;6146;48.128;11.476;2023-09-19T00:11:20;17.30;99.90
12166;DHT22;6146;48.128;11.476;2023-09-19T00:13:47;17.50;99.90
12166;DHT22;6146;48.128;11.476;2023-09-19T00:16:15;17.50;99.90
12166;DHT22;6146;48.128;11.476;2023-09-19T00:18:40;17.50;99.90
12166;DHT22;6146;48.128;11.476;2023-09-19T00:21:06;17.50;99.90
12166;DHT22;6146;48.128;11.476;2023-09-19T00:23:32;17.50;99.90
12166;DHT22;6146;48.128;11.476;2023-09-19T00:25:59;17.50;99.90
12166;DHT22;6146;48.128;11.476;2023-09-19T00:28:24;17.50;99.90
12166;DHT22;6146;48.128;11.476;2023-09-19T00:30:51;17.50;99.90
12166;DHT22;6146;48.128;11.476;2023-09-19T00:33:17;17.50;99.90
12166;DHT22;6146;48.128;11.476;2023-09-19T00:35:51;17.40;99.90
12166;DHT22;6146;48.128;11.476;2023-09-19T00:38:18;17.40;99.90
12166;DHT22;6146;48.128;11.476;2023-09-19T00:40:47;17.40;99.90
12166;DHT22;6146;48.128;11.476;2023-09-19T00:43:13;17.40;99.90
12166;DHT22;6146;48.128;11.476;2023-09-19T00:45:41;17.30;99.90
12166;DHT22;6146;48.128;11.476;2023-09-19T00:48:08;17.30;99.90
12166;DHT22;6146;48.128;11.476;2023-09-19T00:50:35;17.20;99.90
12166;DHT22;6146;48.128;11.476;2023-09-19T00:53:01;17.20;99.90
12166;DHT22;6146;48.128;11.476;2023-09-19T00:55:34;17.20;99.90
12166;DHT22;6146;48.128;11.476;2023-09-19T00:58:00;17.20;99.90
12166;DHT22;6146;48.128;11.476;2023-09-19T01:00:26;17.10;99.90
12166;DHT22;6146;48.128;11.476;2023-09-19T01:02:52;17.10;99.90
12166;DHT22;6146;48.128;11.476;2023-09-19T01:05:17;17.10;99.90
12166;DHT22;6146;48.128;11.476;2023-09-19T01:07:45;17.10;99.90
12166;DHT22;6146;48.128;11.476;2023-09-19T01:10:15;17.10;99.90
12166;DHT22;6146;48.128;11.476;2023-09-19T01:20:37;17.00;99.90
12166;DHT22;6146;48.128;11.476;2023-09-19T01:30:47;17.00;99.90
12166;DHT22;6146;48.128;11.476;2023-09-19T01:33:13;17.00;99.90
12166;DHT22;6146;48.128;11.476;2023-09-19T01:35:40;17.00;99.90
12166;DHT22;6146;48.128;11.476;2023-09-19T01:38:06;17.00;99.90
12166;DHT22;6146;48.128;11.476;2023-09-19T01:40:42;17.10;99.90
12166;DHT22;6146;48.128;11.476;2023-09-19T01:43:30;17.10;99.90
12166;DHT22;6146;48.128;11.476;2023-09-19T01:46:07;17.10;99.90
12166;DHT22;6146;48.128;11.476;2023-09-19T01:48:46;17.10;99.90
12166;DHT22;6146;48.128;11.476;2023-09-19T01:51:20;17.10;99.90
12166;DHT22;6146;48.128;11.476;2023-09-19T01:53:55;17.10;99.90
12166;DHT22;6146;48.128;11.476;2023-09-19T01:56:32;17.10;99.90
12166;DHT22;6146;48.128;11.476;2023-09-19T01:59:06;17.10;99.90
12166;DHT22;6146;48.128;11.476;2023-09-19T02:01:33;17.10;99.90
12166;DHT22;6146;48.128;11.476;2023-09-19T02:04:00;17.10;99.90
12166;DHT22;6146;48.128;11.476;2023-09-19T02:06:26;17.10;99.90
12166;DHT22;6146;48.128;11.476;2023-09-19T02:08:54;17.10;99.90
12166;DHT22;6146;48.128;11.476;2023-09-19T02:11:19;17.10;99.90
12166;DHT22;6146;48.128;11.476;2023-09-19T02:13:45;17.10;99.90
12166;DHT22;6146;48.128;11.476;2023-09-19T02:16:11;17.10;99.90
12166;DHT22;6146;48.128;11.476;2023-09-19T02:18:38;17.10;99.90
12166;DHT22;6146;48.128;11.476;2023-09-19T02:21:04;17.10;99.90
12166;DHT22;6146;48.128;11.476;2023-09-19T02:23:32;17.10;99.90
12166;DHT22;6146;48.128;11.476;2023-09-19T02:25:59;17.00;99.90
12166;DHT22;6146;48.128;11.476;2023-09-19T02:28:26;17.00;99.90
12166;DHT22;6146;48.128;11.476;2023-09-19T02:30:55;16.90;99.90
12166;DHT22;6146;48.128;11.476;2023-09-19T02:33:21;16.90;99.90
12166;DHT22;6146;48.128;11.476;2023-09-19T02:35:47;16.90;99.90
12166;DHT22;6146;48.128;11.476;2023-09-19T02:38:13;16.90;99.90
12166;DHT22;6146;48.128;11.476;2023-09-19T02:40:40;16.90;99.90
12166;DHT22;6146;48.128;11.476;2023-09-19T02:43:05;16.80;99.90
12166;DHT22;6146;48.128;11.476;2023-09-19T02:45:33;16.90;99.90
12166;DHT22;6146;48.128;11.476;2023-09-19T02:47:59;16.80;99.90
12166;DHT22;6146;48.128;11.476;2023-09-19T02:50:25;16.80;99.90
12166;DHT22;6146;48.128;11.476;2023-09-19T02:52:51;16.70;99.90
12166;DHT22;6146;48.128;11.476;2023-09-19T02:55:17;16.70;99.90
12166;DHT22;6146;48.128;11.476;2023-09-19T02:57:52;16.70;99.90
12166;DHT22;6146;48.128;11.476;2023-09-19T03:00:20;16.60;99.90
12166;DHT22;6146;48.128;11.476;2023-09-19T03:02:50;16.60;99.90
12166;DHT22;6146;48.128;11.476;2023-09-19T03:05:17;16.50;99.90
12166;DHT22;6146;48.128;11.476;2023-09-19T03:07:43;16.60;99.90
12166;DHT22;6146;48.128;11.476;2023-09-19T03:10:11;16.60;99.90
12166;DHT22;6146;48.128;11.476;2023-09-19T03:12:37;16.60;99.90
12166;DHT22;6146;48.128;11.476;2023-09-19T03:15:03;16.60;99.90
12166;DHT22;6146;48.128;11.476;2023-09-19T03:17:29;16.60;99.90
12166;DHT22;6146;48.128;11.476;2023-09-19T03:19:55;16.60;99.90
12166;DHT22;6146;48.128;11.476;2023-09-19T03:22:22;16.60;99.90
12166;DHT22;6146;48.128;11.476;2023-09-19T03:24:48;16.60;99.90
12166;DHT22;6146;48.128;11.476;2023-09-19T03:27:13;16.60;99.90
12166;DHT22;6146;48.128;11.476;2023-09-19T03:29:42;16.60;99.90
12166;DHT22;6146;48.128;11.476;2023-09-19T03:32:08;16.60;99.90
12166;DHT22;6146;48.128;11.476;2023-09-19T03:34:37;16.60;99.90
12166;DHT22;6146;48.128;11.476;2023-09-19T03:37:05;16.70;99.90
12166;DHT22;6146;48.128;11.476;2023-09-19T03:39:32;16.60;99.90
12166;DHT22;6146;48.128;11.476;2023-09-19T03:41:58;16.60;99.90
12166;DHT22;6146;48.128;11.476;2023-09-19T03:44:23;16.60;99.90
12166;DHT22;6146;48.128;11.476;2023-09-19T03:46:49;16.60;99.90
12166;DHT22;6146;48.128;11.476;2023-09-19T03:49:14;16.60;99.90
12166;DHT22;6146;48.128;11.476;2023-09-19T03:51:40;16.60;99.90
12166;DHT22;6146;48.128;11.476;2023-09-19T03:54:07;16.60;99.90
12166;DHT22;6146;48.128;11.476;2023-09-19T03:56:33;16.60;99.90
12166;DHT22;6146;48.128;11.476;2023-09-19T03:58:58;16.60;99.90
12166;DHT22;6146;48.128;11.476;2023-09-19T04:01:24;16.70;99.90
12166;DHT22;6146;48.128;11.476;2023-09-19T04:03:50;16.70;99.90
12166;DHT22;6146;48.128;11.476;2023-09-19T04:06:17;16.70;99.90
12166;DHT22;6146;48.128;11.476;2023-09-19T04:08:43;16.70;99.90
12166;DHT22;6146;48.128;11.476;2023-09-19T04:11:10;16.70;99.90
12166;DHT22;6146;48.128;11.476;2023-09-19T04:13:36;16.70;99.90
12166;DHT22;6146;48.128;11.476;2023-09-19T04:16:02;16.70;99.90
12166;DHT22;6146;48.128;11.476;2023-09-19T04:18:29;16.70;99.90
12166;DHT22;6146;48.128;11.476;2023-09-19T04:20:57;16.70;99.90
12166;DHT22;6146;48.128;11.476;2023-09-19T04:23:22;16.70;99.90
12166;DHT22;6146;48.128;11.476;2023-09-19T04:25:48;16.70;99.90
12166;DHT22;6146;48.128;11.476;2023-09-19T04:28:14;16.70;99.90
12166;DHT22;6146;48.128;11.476;2023-09-19T04:30:40;16.70;99.90
12166;DHT22;6146;48.128;11.476;2023-09-19T04:33:06;16.70;99.90
12166;DHT22;6146;48.128;11.476;2023-09-19T04:35:32;16.70;99.90
12166;DHT22;6146;48.128;11.476;2023-09-19T04:37:58;16.60;99.90
12166;DHT22;6146;48.128;11.476;2023-09-19T04:40:24;16.60;99.90
12166;DHT22;6146;48.128;11.476;2023-09-19T04:42:55;16.60;99.90
12166;DHT22;6146;48.128;11.476;2023-09-19T04:45:24;16.80;99.90
12166;DHT22;6146;48.128;11.476;2023-09-19T04:47:50;16.60;99.90
12166;DHT22;6146;48.128;11.476;2023-09-19T04:50:15;16.60;99.90
12166;DHT22;6146;48.128;11.476;2023-09-19T04:52:43;16.60;99.90
12166;DHT22;6146;48.128;11.476;2023-09-19T04:55:16;16.60;99.90
12166;DHT22;6146;48.128;11.476;2023-09-19T04:57:48;16.60;99.90
12166;DHT22;6146;48.128;11.476;2023-09-19T05:00:18;16.50;99.90
12166;DHT22;6146;48.128;11.476;2023-09-19T05:02:44;16.60;99.90
12166;DHT22;6146;48.128;11.476;2023-09-19T05:05:11;16.60;99.90
12166;DHT22;6146;48.128;11.476;2023-09-19T05:07:39;16.50;99.90
12166;DHT22;6146;48.128;11.476;2023-09-19T05:10:05;16.60;99.90
12166;DHT22;6146;48.128;11.476;2023-09-19T05:12:35;16.60;99.90
12166;DHT22;6146;48.128;11.476;2023-09-19T05:15:02;16.60;99.90
12166;DHT22;6146;48.128;11.476;2023-09-19T05:17:28;16.70;99.90
12166;DHT22;6146;48.128;11.476;2023-09-19T05:19:54;16.70;99.90
12166;DHT22;6146;48.128;11.476;2023-09-19T05:22:19;16.80;99.90
12166;DHT22;6146;48.128;11.476;2023-09-19T05:24:45;16.80;99.90
12166;DHT22;6146;48.128;11.476;2023-09-19T05:27:14;16.80;99.90
12166;DHT22;6146;48.128;11.476;2023-09-19T05:29:45;16.80;99.90
12166;DHT22;6146;48.128;11.476;2023-09-19T05:32:11;16.80;99.90
12166;DHT22;6146;48.128;11.476;2023-09-19T05:34:38;16.80;99.90
12166;DHT22;6146;48.128;11.476;2023-09-19T05:37:04;16.90;99.90
12166;DHT22;6146;48.128;11.476;2023-09-19T05:39:32;16.80;99.90
12166;DHT22;6146;48.128;11.476;2023-09-19T05:41:58;16.80;99.90
12166;DHT22;6146;48.128;11.476;2023-09-19T05:44:25;16.80;99.90
12166;DHT22;6146;48.128;11.476;2023-09-19T05:46:51;16.80;99.90
12166;DHT22;6146;48.128;11.476;2023-09-19T05:49:17;16.90;99.90
12166;DHT22;6146;48.128;11.476;2023-09-19T05:51:43;16.90;99.90
12166;DHT22;6146;48.128;11.476;2023-09-19T05:54:08;16.90;99.90
12166;DHT22;6146;48.128;11.476;2023-09-19T05:56:34;17.00;99.90
12166;DHT22;6146;48.128;11.476;2023-09-19T05:59:00;17.10;99.90
12166;DHT22;6146;48.128;11.476;2023-09-19T06:01:25;17.30;99.90
12166;DHT22;6146;48.128;11.476;2023-09-19T06:03:51;17.50;99.90
12166;DHT22;6146;48.128;11.476;2023-09-19T06:06:18;17.70;99.90
12166;DHT22;6146;48.128;11.476;2023-09-19T06:08:44;17.90;99.90
12166;DHT22;6146;48.128;11.476;2023-09-19T06:11:10;17.90;99.90
12166;DHT22;6146;48.128;11.476;2023-09-19T06:13:36;18.00;99.90
12166;DHT22;6146;48.128;11.476;2023-09-19T06:16:04;18.00;99.90
12166;DHT22;6146;48.128;11.476;2023-09-19T06:18:30;18.10;99.90
12166;DHT22;6146;48.128;11.476;2023-09-19T06:20:59;18.20;99.90
12166;DHT22;6146;48.128;11.476;2023-09-19T06:23:25;18.30;99.90
12166;DHT22;6146;48.128;11.476;2023-09-19T06:25:52;18.40;99.90
12166;DHT22;6146;48.128;11.476;2023-09-19T06:28:19;18.40;99.90
12166;DHT22;6146;48.128;11.476;2023-09-19T06:30:49;18.40;99.90
12166;DHT22;6146;48.128;11.476;2023-09-19T06:33:15;18.40;99.90
12166;DHT22;6146;48.128;11.476;2023-09-19T06:35:41;18.30;99.90
12166;DHT22;6146;48.128;11.476;2023-09-19T06:38:07;18.40;99.90
12166;DHT22;6146;48.128;11.476;2023-09-19T06:40:34;18.50;99.90
12166;DHT22;6146;48.128;11.476;2023-09-19T06:43:00;18.70;99.90
12166;DHT22;6146;48.128;11.476;2023-09-19T06:45:27;19.00;99.90
12166;DHT22;6146;48.128;11.476;2023-09-19T06:47:53;19.20;99.90
12166;DHT22;6146;48.128;11.476;2023-09-19T06:50:23;19.10;99.90
12166;DHT22;6146;48.128;11.476;2023-09-19T06:52:53;19.00;99.90
12166;DHT22;6146;48.128;11.476;2023-09-19T06:55:20;19.00;99.90
12166;DHT22;6146;48.128;11.476;2023-09-19T06:57:48;19.30;99.90
12166;DHT22;6146;48.128;11.476;2023-09-19T07:00:15;19.70;99.90
12166;DHT22;6146;48.128;11.476;2023-09-19T07:05:32;20.00;99.90
12166;DHT22;6146;48.128;11.476;2023-09-19T07:08:02;19.80;99.90
12166;DHT22;6146;48.128;11.476;2023-09-19T07:10:27;19.60;99.90
12166;DHT22;6146;48.128;11.476;2023-09-19T07:13:00;19.50;99.90
12166;DHT22;6146;48.128;11.476;2023-09-19T07:15:27;19.50;99.90
12166;DHT22;6146;48.128;11.476;2023-09-19T07:17:53;19.30;99.90
12166;DHT22;6146;48.128;11.476;2023-09-19T07:20:20;19.30;99.90
12166;DHT22;6146;48.128;11.476;2023-09-19T07:22:46;19.30;99.90
12166;DHT22;6146;48.128;11.476;2023-09-19T07:25:13;19.30;99.90
12166;DHT22;6146;48.128;11.476;2023-09-19T07:27:41;19.30;99.90
12166;DHT22;6146;48.128;11.476;2023-09-19T07:30:07;19.50;99.90
12166;DHT22;6146;48.128;11.476;2023-09-19T07:32:33;20.30;99.90
12166;DHT22;6146;48.128;11.476;2023-09-19T07:35:02;20.90;99.90
12166;DHT22;6146;48.128;11.476;2023-09-19T07:37:29;21.30;99.90
12166;DHT22;6146;48.128;11.476;2023-09-19T07:39:56;21.20;99.90
12166;DHT22;6146;48.128;11.476;2023-09-19T07:42:22;21.20;99.90
12166;DHT22;6146;48.128;11.476;2023-09-19T07:44:48;21.10;99.90
12166;DHT22;6146;48.128;11.476;2023-09-19T07:47:16;21.20;99.90
12166;DHT22;6146;48.128;11.476;2023-09-19T07:49:42;22.10;99.90
12166;DHT22;6146;48.128;11.476;2023-09-19T07:52:08;23.30;99.90
12166;DHT22;6146;48.128;11.476;2023-09-19T07:54:35;25.00;99.90
12166;DHT22;6146;48.128;11.476;2023-09-19T07:57:01;25.30;99.90
12166;DHT22;6146;48.128;11.476;2023-09-19T07:59:27;25.10;99.90
12166;DHT22;6146;48.128;11.476;2023-09-19T08:01:53;24.80;99.90
12166;DHT22;6146;48.128;11.476;2023-09-19T08:04:19;25.10;99.90
12166;DHT22;6146;48.128;11.476;2023-09-19T08:06:45;25.50;99.90
12166;DHT22;6146;48.128;11.476;2023-09-19T08:09:11;25.30;99.90
12166;DHT22;6146;48.128;11.476;2023-09-19T08:11:37;24.60;99.90
12166;DHT22;6146;48.128;11.476;2023-09-19T08:14:04;24.50;99.90
12166;DHT22;6146;48.128;11.476;2023-09-19T08:16:31;24.30;99.90
12166;DHT22;6146;48.128;11.476;2023-09-19T08:18:56;24.00;99.90
12166;DHT22;6146;48.128;11.476;2023-09-19T08:21:22;23.70;99.90
12166;DHT22;6146;48.128;11.476;2023-09-19T08:23:49;23.50;99.90
12166;DHT22;6146;48.128;11.476;2023-09-19T08:26:15;23.50;99.90
12166;DHT22;6146;48.128;11.476;2023-09-19T08:28:40;24.90;99.90
12166;DHT22;6146;48.128;11.476;2023-09-19T08:31:07;26.60;99.90
12166;DHT22;6146;48.128;11.476;2023-09-19T08:33:35;27.70;99.90
12166;DHT22;6146;48.128;11.476;2023-09-19T08:36:04;29.40;97.10
12166;DHT22;6146;48.128;11.476;2023-09-19T08:38:31;30.40;93.40
12166;DHT22;6146;48.128;11.476;2023-09-19T08:40:59;31.30;88.00
12166;DHT22;6146;48.128;11.476;2023-09-19T08:43:28;30.10;86.30
12166;DHT22;6146;48.128;11.476;2023-09-19T08:48:32;29.80;88.60
12166;DHT22;6146;48.128;11.476;2023-09-19T08:51:10;29.60;86.40
12166;DHT22;6146;48.128;11.476;2023-09-19T08:56:17;28.80;88.10
12166;DHT22;6146;48.128;11.476;2023-09-19T08:59:05;28.30;89.60
12166;DHT22;6146;48.128;11.476;2023-09-19T09:01:35;27.70;91.60
12166;DHT22;6146;48.128;11.476;2023-09-19T09:04:02;26.50;92.70
12166;DHT22;6146;48.128;11.476;2023-09-19T09:06:28;25.80;94.00
12166;DHT22;6146;48.128;11.476;2023-09-19T09:08:54;26.40;94.40
12166;DHT22;6146;48.128;11.476;2023-09-19T09:11:21;26.20;92.90
12166;DHT22;6146;48.128;11.476;2023-09-19T09:13:47;25.50;94.60
12166;DHT22;6146;48.128;11.476;2023-09-19T09:16:14;24.80;95.80
12166;DHT22;6146;48.128;11.476;2023-09-19T09:18:42;24.20;96.70
12166;DHT22;6146;48.128;11.476;2023-09-19T09:21:09;25.50;95.10
12166;DHT22;6146;48.128;11.476;2023-09-19T09:23:35;27.10;94.70
12166;DHT22;6146;48.128;11.476;2023-09-19T09:26:01;28.50;91.70
12166;DHT22;6146;48.128;11.476;2023-09-19T09:28:33;29.60;86.80
12166;DHT22;6146;48.128;11.476;2023-09-19T09:31:01;30.50;85.30
12166;DHT22;6146;48.128;11.476;2023-09-19T09:33:34;31.90;81.10
12166;DHT22;6146;48.128;11.476;2023-09-19T09:36:01;32.10;75.80
12166;DHT22;6146;48.128;11.476;2023-09-19T09:38:46;31.50;72.90
12166;DHT22;6146;48.128;11.476;2023-09-19T09:41:15;30.40;76.40
12166;DHT22;6146;48.128;11.476;2023-09-19T09:43:52;30.30;75.20
12166;DHT22;6146;48.128;11.476;2023-09-19T09:46:19;30.50;75.90
12166;DHT22;6146;48.128;11.476;2023-09-19T09:48:58;31.20;70.90
12166;DHT22;6146;48.128;11.476;2023-09-19T09:51:40;31.30;71.50
12166;DHT22;6146;48.128;11.476;2023-09-19T09:54:15;31.70;71.40
12166;DHT22;6146;48.128;11.476;2023-09-19T09:57:00;32.40;70.10
12166;DHT22;6146;48.128;11.476;2023-09-19T09:59:46;32.20;66.20
12166;DHT22;6146;48.128;11.476;2023-09-19T10:02:20;29.90;71.50
12166;DHT22;6146;48.128;11.476;2023-09-19T10:04:55;28.80;74.40
12166;DHT22;6146;48.128;11.476;2023-09-19T10:07:41;28.60;75.30
12166;DHT22;6146;48.128;11.476;2023-09-19T10:10:13;27.90;79.00
12166;DHT22;6146;48.128;11.476;2023-09-19T10:12:46;28.30;79.60
12166;DHT22;6146;48.128;11.476;2023-09-19T10:15:17;29.00;76.70
12166;DHT22;6146;48.128;11.476;2023-09-19T10:17:47;28.30;79.60
12166;DHT22;6146;48.128;11.476;2023-09-19T10:20:14;28.20;78.30
12166;DHT22;6146;48.128;11.476;2023-09-19T10:22:57;29.00;77.50
12166;DHT22;6146;48.128;11.476;2023-09-19T10:25:26;28.70;75.90
12166;DHT22;6146;48.128;11.476;2023-09-19T10:27:54;27.30;78.00
12166;DHT22;6146;48.128;11.476;2023-09-19T10:30:25;26.40;83.20
12166;DHT22;6146;48.128;11.476;2023-09-19T10:33:01;25.60;86.30
12166;DHT22;6146;48.128;11.476;2023-09-19T10:35:27;24.90;90.10
12166;DHT22;6146;48.128;11.476;2023-09-19T10:37:55;24.20;89.70
12166;DHT22;6146;48.128;11.476;2023-09-19T10:40:22;23.90;91.60
12166;DHT22;6146;48.128;11.476;2023-09-19T10:43:00;23.50;93.10
12166;DHT22;6146;48.128;11.476;2023-09-19T10:45:26;23.10;94.10
12166;DHT22;6146;48.128;11.476;2023-09-19T10:47:55;23.40;95.70
12166;DHT22;6146;48.128;11.476;2023-09-19T10:50:22;24.70;92.40
12166;DHT22;6146;48.128;11.476;2023-09-19T10:52:48;25.10;92.40
12166;DHT22;6146;48.128;11.476;2023-09-19T10:55:18;24.70;91.60
12166;DHT22;6146;48.128;11.476;2023-09-19T10:57:45;24.20;92.90
12166;DHT22;6146;48.128;11.476;2023-09-19T11:00:12;24.50;92.60
12166;DHT22;6146;48.128;11.476;2023-09-19T11:05:39;23.60;92.70
12166;DHT22;6146;48.128;11.476;2023-09-19T11:08:09;23.00;93.80
12166;DHT22;6146;48.128;11.476;2023-09-19T11:10:48;22.70;94.50
12166;DHT22;6146;48.128;11.476;2023-09-19T11:13:27;23.30;94.30
12166;DHT22;6146;48.128;11.476;2023-09-19T11:27:13;25.90;80.60
12166;DHT22;6146;48.128;11.476;2023-09-19T11:29:39;27.10;79.80
12166;DHT22;6146;48.128;11.476;2023-09-19T11:32:05;27.40;77.30
12166;DHT22;6146;48.128;11.476;2023-09-19T11:40:09;27.10;75.60
12166;DHT22;6146;48.128;11.476;2023-09-19T11:42:46;28.00;75.40
12166;DHT22;6146;48.128;11.476;2023-09-19T11:48:10;28.80;71.30
12166;DHT22;6146;48.128;11.476;2023-09-19T11:50:39;28.60;69.00
12166;DHT22;6146;48.128;11.476;2023-09-19T11:53:12;28.10;71.30
12166;DHT22;6146;48.128;11.476;2023-09-19T11:55:39;27.70;72.90
12166;DHT22;6146;48.128;11.476;2023-09-19T11:58:07;27.60;74.20
12166;DHT22;6146;48.128;11.476;2023-09-19T12:00:34;27.70;74.90
12166;DHT22;6146;48.128;11.476;2023-09-19T12:03:07;26.90;76.80
12166;DHT22;6146;48.128;11.476;2023-09-19T12:05:33;27.10;77.50
12166;DHT22;6146;48.128;11.476;2023-09-19T12:08:00;27.40;75.70
12166;DHT22;6146;48.128;11.476;2023-09-19T12:10:27;27.50;74.80
12166;DHT22;6146;48.128;11.476;2023-09-19T12:12:53;27.60;76.30
12166;DHT22;6146;48.128;11.476;2023-09-19T12:15:25;27.30;77.70
12166;DHT22;6146;48.128;11.476;2023-09-19T12:17:59;26.40;80.70
12166;DHT22;6146;48.128;11.476;2023-09-19T12:20:25;26.00;80.20
12166;DHT22;6146;48.128;11.476;2023-09-19T12:22:51;26.90;83.30
12166;DHT22;6146;48.128;11.476;2023-09-19T12:25:16;28.50;76.80
12166;DHT22;6146;48.128;11.476;2023-09-19T12:27:44;29.80;70.40
12166;DHT22;6146;48.128;11.476;2023-09-19T12:30:12;30.40;67.70
12166;DHT22;6146;48.128;11.476;2023-09-19T12:32:40;30.10;67.20
12166;DHT22;6146;48.128;11.476;2023-09-19T12:35:07;29.50;66.90
12166;DHT22;6146;48.128;11.476;2023-09-19T12:37:36;29.60;70.00
12166;DHT22;6146;48.128;11.476;2023-09-19T12:40:07;29.80;65.60
12166;DHT22;6146;48.128;11.476;2023-09-19T12:42:40;29.70;66.50
12166;DHT22;6146;48.128;11.476;2023-09-19T12:45:07;28.80;70.30
12166;DHT22;6146;48.128;11.476;2023-09-19T12:47:34;28.70;69.10
12166;DHT22;6146;48.128;11.476;2023-09-19T12:50:13;29.50;69.90
12166;DHT22;6146;48.128;11.476;2023-09-19T12:52:49;30.50;67.90
12166;DHT22;6146;48.128;11.476;2023-09-19T12:55:29;30.80;67.50
12166;DHT22;6146;48.128;11.476;2023-09-19T12:58:09;30.40;66.50
12166;DHT22;6146;48.128;11.476;2023-09-19T13:00:41;29.10;68.00
12166;DHT22;6146;48.128;11.476;2023-09-19T13:03:14;28.20;71.10
12166;DHT22;6146;48.128;11.476;2023-09-19T13:05:54;27.10;72.60
12166;DHT22;6146;48.128;11.476;2023-09-19T13:11:11;27.20;73.00
12166;DHT22;6146;48.128;11.476;2023-09-19T13:13:43;27.70;74.00
12166;DHT22;6146;48.128;11.476;2023-09-19T13:16:19;26.90;74.70
12166;DHT22;6146;48.128;11.476;2023-09-19T13:18:48;26.30;80.00
12166;DHT22;6146;48.128;11.476;2023-09-19T13:21:17;26.50;81.70
12166;DHT22;6146;48.128;11.476;2023-09-19T13:23:54;26.60;82.80
12166;DHT22;6146;48.128;11.476;2023-09-19T13:26:27;26.70;82.70
12166;DHT22;6146;48.128;11.476;2023-09-19T13:28:54;26.60;82.60
12166;DHT22;6146;48.128;11.476;2023-09-19T13:31:20;26.40;82.60
12166;DHT22;6146;48.128;11.476;2023-09-19T13:33:48;26.00;80.20
12166;DHT22;6146;48.128;11.476;2023-09-19T13:36:13;25.80;80.60
12166;DHT22;6146;48.128;11.476;2023-09-19T13:38:43;25.70;80.20
12166;DHT22;6146;48.128;11.476;2023-09-19T13:41:10;25.40;79.70
12166;DHT22;6146;48.128;11.476;2023-09-19T13:43:36;25.00;80.70
12166;DHT22;6146;48.128;11.476;2023-09-19T13:46:02;24.80;84.60
12166;DHT22;6146;48.128;11.476;2023-09-19T13:48:28;24.40;82.60
12166;DHT22;6146;48.128;11.476;2023-09-19T13:50:55;24.30;83.40
12166;DHT22;6146;48.128;11.476;2023-09-19T13:53:21;24.20;83.80
12166;DHT22;6146;48.128;11.476;2023-09-19T13:55:47;24.10;81.00
12166;DHT22;6146;48.128;11.476;2023-09-19T13:58:14;24.10;82.10
12166;DHT22;6146;48.128;11.476;2023-09-19T14:00:40;24.00;81.30
12166;DHT22;6146;48.128;11.476;2023-09-19T14:03:05;24.00;84.60
12166;DHT22;6146;48.128;11.476;2023-09-19T14:05:31;24.00;85.60
12166;DHT22;6146;48.128;11.476;2023-09-19T14:07:57;23.80;86.40
12166;DHT22;6146;48.128;11.476;2023-09-19T14:10:25;23.90;87.40
12166;DHT22;6146;48.128;11.476;2023-09-19T14:12:52;24.00;88.60
12166;DHT22;6146;48.128;11.476;2023-09-19T14:15:18;24.00;86.90
12166;DHT22;6146;48.128;11.476;2023-09-19T14:17:43;23.80;87.10
12166;DHT22;6146;48.128;11.476;2023-09-19T14:20:12;23.70;87.10
12166;DHT22;6146;48.128;11.476;2023-09-19T14:22:38;23.60;90.00
12166;DHT22;6146;48.128;11.476;2023-09-19T14:25:04;23.60;90.10
12166;DHT22;6146;48.128;11.476;2023-09-19T14:27:30;23.70;90.20
12166;DHT22;6146;48.128;11.476;2023-09-19T14:29:56;23.70;87.70
12166;DHT22;6146;48.128;11.476;2023-09-19T14:32:23;23.70;88.60
12166;DHT22;6146;48.128;11.476;2023-09-19T14:34:48;23.60;88.40
12166;DHT22;6146;48.128;11.476;2023-09-19T14:37:14;23.50;89.30
12166;DHT22;6146;48.128;11.476;2023-09-19T14:39:41;23.40;88.60
12166;DHT22;6146;48.128;11.476;2023-09-19T14:42:10;23.30;88.90
12166;DHT22;6146;48.128;11.476;2023-09-19T14:44:36;23.10;89.00
12166;DHT22;6146;48.128;11.476;2023-09-19T14:47:03;23.10;90.20
12166;DHT22;6146;48.128;11.476;2023-09-19T14:49:35;23.20;91.20
12166;DHT22;6146;48.128;11.476;2023-09-19T14:52:07;23.20;90.60
12166;DHT22;6146;48.128;11.476;2023-09-19T14:54:32;23.20;91.10
12166;DHT22;6146;48.128;11.476;2023-09-19T14:56:59;23.20;91.30
12166;DHT22;6146;48.128;11.476;2023-09-19T14:59:33;23.10;91.20
12166;DHT22;6146;48.128;11.476;2023-09-19T15:02:05;23.20;90.70
12166;DHT22;6146;48.128;11.476;2023-09-19T15:04:30;23.10;90.60
12166;DHT22;6146;48.128;11.476;2023-09-19T15:06:56;23.00;90.70
12166;DHT22;6146;48.128;11.476;2023-09-19T15:09:23;22.80;90.70
12166;DHT22;6146;48.128;11.476;2023-09-19T15:11:55;22.70;91.50
12166;DHT22;6146;48.128;11.476;2023-09-19T15:14:21;22.80;92.10
12166;DHT22;6146;48.128;11.476;2023-09-19T15:16:47;22.80;91.70
12166;DHT22;6146;48.128;11.476;2023-09-19T15:19:14;22.80;92.20
12166;DHT22;6146;48.128;11.476;2023-09-19T15:21:40;22.80;91.90
12166;DHT22;6146;48.128;11.476;2023-09-19T15:24:06;22.80;92.80
12166;DHT22;6146;48.128;11.476;2023-09-19T15:26:35;22.80;91.70
12166;DHT22;6146;48.128;11.476;2023-09-19T15:29:08;22.60;91.10
12166;DHT22;6146;48.128;11.476;2023-09-19T15:31:35;22.40;91.90
12166;DHT22;6146;48.128;11.476;2023-09-19T15:34:04;22.40;91.20
12166;DHT22;6146;48.128;11.476;2023-09-19T15:36:31;22.30;91.80
12166;DHT22;6146;48.128;11.476;2023-09-19T15:41:32;22.10;91.80
12166;DHT22;6146;48.128;11.476;2023-09-19T15:43:59;22.20;91.60
12166;DHT22;6146;48.128;11.476;2023-09-19T15:46:27;22.10;91.90
12166;DHT22;6146;48.128;11.476;2023-09-19T15:48:53;22.10;92.10
12166;DHT22;6146;48.128;11.476;2023-09-19T15:51:19;22.10;92.60
12166;DHT22;6146;48.128;11.476;2023-09-19T15:53:49;22.00;91.30
12166;DHT22;6146;48.128;11.476;2023-09-19T15:56:17;21.90;91.70
12166;DHT22;6146;48.128;11.476;2023-09-19T15:58:46;21.80;92.30
12166;DHT22;6146;48.128;11.476;2023-09-19T16:01:12;21.80;92.40
12166;DHT22;6146;48.128;11.476;2023-09-19T16:03:39;21.70;92.60
12166;DHT22;6146;48.128;11.476;2023-09-19T16:06:16;21.70;93.60
12166;DHT22;6146;48.128;11.476;2023-09-19T16:08:48;21.70;93.30
12166;DHT22;6146;48.128;11.476;2023-09-19T16:11:14;21.60;93.40
12166;DHT22;6146;48.128;11.476;2023-09-19T16:13:41;21.50;93.70
12166;DHT22;6146;48.128;11.476;2023-09-19T16:16:08;21.40;94.10
12166;DHT22;6146;48.128;11.476;2023-09-19T16:18:37;21.40;93.50
12166;DHT22;6146;48.128;11.476;2023-09-19T16:21:05;21.40;93.20
12166;DHT22;6146;48.128;11.476;2023-09-19T16:23:33;21.30;93.50
12166;DHT22;6146;48.128;11.476;2023-09-19T16:26:08;21.20;93.90
12166;DHT22;6146;48.128;11.476;2023-09-19T16:28:35;21.10;94.10